Sandra Hugh — WDD9019 — position and weather

sailwx.info

Track history (hours):
 
Tides and Currents Weather Stations Pressure Air Temp Water Temp Dewpoint Dewpoint Depression Visibility Wind Speed Wind Dir Waves Ship Positions

Sandra Hugh

Owner: AMNAV Maritime Corporation, Oakland, CA. More information available from US FCC via Universal Licensing System and Coast Guard Vessel Documentation Center.

Last reported at 2017-Dec-15 07:54 UTC. Time now 2017-Dec-15 08:08 UTC.
Position N 38°03' W 122°15'.

Length 24 m; draft 4.9 m.

Type: Tug. MMSI: 367305920.

Date/timePositionNaut miles runAvg speedWind from/ knotsBaromVisibWave heightAir tempDewpointWater temp
2017-Dec-15 07:54N 38°03' W 122°15'0 0.0
2017-Dec-15 07:01N 38°03' W 122°15'0 0.0
2017-Dec-15 06:58N 38°03' W 122°15'0 0.0
2017-Dec-15 06:25N 38°03' W 122°15'1 0.2
2017-Dec-15 02:06N 38°04' W 122°13'9 8.5
2017-Dec-15 00:59N 37°60' W 122°25'4 8.7
2017-Dec-15 00:29N 37°56' W 122°25'8 1.4
2017-Dec-14 18:31N 37°49' W 122°19'0 0.0
2017-Dec-14 18:00N 37°49' W 122°19'0 0.0
2017-Dec-14 17:30N 37°49' W 122°19'0 0.0
2017-Dec-14 17:00N 37°49' W 122°19'0 0.0
2017-Dec-14 16:30N 37°49' W 122°19'0 0.0
2017-Dec-14 16:00N 37°49' W 122°19'2 2.0
2017-Dec-14 15:00N 37°48' W 122°18'0 0.8
2017-Dec-14 14:30N 37°48' W 122°18'1 1.0
2017-Dec-14 14:00N 37°48' W 122°19'0 0.8
2017-Dec-14 13:30N 37°48' W 122°19'2 3.2
2017-Dec-14 13:00N 37°49' W 122°19'0 0.0
2017-Dec-14 12:30N 37°49' W 122°19'0 0.0
2017-Dec-14 12:00N 37°49' W 122°19'0 0.0
2017-Dec-14 11:30N 37°49' W 122°19'0 0.0
2017-Dec-14 11:00N 37°49' W 122°19'0 0.0
2017-Dec-14 10:30N 37°49' W 122°19'0 0.0
2017-Dec-14 10:00N 37°49' W 122°19'0 0.0
2017-Dec-14 09:30N 37°49' W 122°19'0 0.0
2017-Dec-14 09:00N 37°49' W 122°19'0 0.0
2017-Dec-14 08:30N 37°49' W 122°19'0 0.0
2017-Dec-14 08:00N 37°49' W 122°19'0 0.0
2017-Dec-14 07:30N 37°49' W 122°19'0 0.0
2017-Dec-14 07:00N 37°49' W 122°19'0 0.0
2017-Dec-14 06:30N 37°49' W 122°19'0 0.0
2017-Dec-14 06:00N 37°49' W 122°19'0 0.0
2017-Dec-14 05:30N 37°49' W 122°19'0 0.0
2017-Dec-14 05:00N 37°49' W 122°19'0 0.0
2017-Dec-14 04:30N 37°49' W 122°19'0 0.0
2017-Dec-14 04:00N 37°49' W 122°19'0 0.0
2017-Dec-14 03:30N 37°49' W 122°19'2 3.2
2017-Dec-14 03:00N 37°48' W 122°19'0 0.1
2017-Dec-14 02:30N 37°48' W 122°19'0 0.0
2017-Dec-14 02:00N 37°48' W 122°19'0 0.0
2017-Dec-14 01:30N 37°48' W 122°19'1 2.4
2017-Dec-14 01:00N 37°49' W 122°20'0 0.8
2017-Dec-14 00:31N 37°49' W 122°20'0 0.1
2017-Dec-14 00:00N 37°49' W 122°20'2 4.6
2017-Dec-13 23:30N 37°49' W 122°23'2 3.5
2017-Dec-13 23:00N 37°48' W 122°21'0 0.0
2017-Dec-13 22:30N 37°48' W 122°21'2 3.0
2017-Dec-13 22:00N 37°50' W 122°22'510.1
2017-Dec-13 21:30N 37°54' W 122°25'611.7
2017-Dec-13 21:00N 37°60' W 122°25'611.5
2017-Dec-13 20:30N 38°03' W 122°19'9 7.2
2017-Dec-13 19:16N 38°02' W 122°07'1 0.6
2017-Dec-13 17:49N 38°02' W 122°08'3 6.0
2017-Dec-13 17:20N 38°03' W 122°11'310.1
2017-Dec-13 17:00N 38°04' W 122°16'5 8.2
2017-Dec-13 16:24N 38°02' W 122°22'3 8.4
2017-Dec-13 16:00N 38°00' W 122°25'610.6
2017-Dec-13 15:27N 37°54' W 122°27'4 8.9
2017-Dec-13 15:00N 37°51' W 122°25'5 9.8
2017-Dec-13 14:30N 37°48' W 122°31'1 1.2
2017-Dec-13 14:00N 37°48' W 122°30'1 2.4
2017-Dec-13 13:30N 37°49' W 122°29'4 8.1
2017-Dec-13 13:00N 37°49' W 122°24'4 8.2
2017-Dec-13 12:30N 37°49' W 122°19'0 0.0
2017-Dec-13 12:00N 37°49' W 122°19'0 0.0
2017-Dec-13 11:30N 37°49' W 122°19'0 0.0
2017-Dec-13 11:00N 37°49' W 122°19'0 0.0
2017-Dec-13 10:30N 37°49' W 122°19'0 0.0
2017-Dec-13 10:00N 37°49' W 122°19'0 0.0
2017-Dec-13 09:30N 37°49' W 122°19'0 0.0
2017-Dec-13 09:00N 37°49' W 122°19'0 0.0
2017-Dec-13 08:30N 37°49' W 122°19'0 0.0
2017-Dec-13 08:01N 37°49' W 122°19'0 0.0
2017-Dec-13 07:30N 37°49' W 122°19'0 0.0
2017-Dec-13 07:00N 37°49' W 122°19'0 0.0
2017-Dec-13 06:30N 37°49' W 122°19'0 0.0
2017-Dec-13 06:00N 37°49' W 122°19'0 0.0
2017-Dec-13 05:30N 37°49' W 122°19'0 0.0
2017-Dec-13 05:00N 37°49' W 122°19'0 0.0
2017-Dec-13 04:30N 37°49' W 122°19'0 0.0
2017-Dec-13 04:01N 37°49' W 122°19'2 3.2
2017-Dec-13 03:31N 37°48' W 122°19'1 2.3
2017-Dec-13 03:01N 37°48' W 122°20'3 5.1
2017-Dec-13 02:31N 37°46' W 122°22'3 6.1
2017-Dec-13 02:00N 37°49' W 122°20'0 0.5
2017-Dec-13 01:30N 37°49' W 122°20'0 1.0
2017-Dec-13 01:00N 37°49' W 122°20'2 3.8
2017-Dec-13 00:31N 37°48' W 122°23'3 6.8
2017-Dec-13 00:00N 37°49' W 122°19'0 0.0
2017-Dec-12 23:30N 37°49' W 122°19'0 0.0
2017-Dec-12 23:00N 37°49' W 122°19'0 0.0
2017-Dec-12 22:30N 37°49' W 122°19'0 0.0
2017-Dec-12 22:00N 37°49' W 122°19'0 0.0
2017-Dec-12 21:30N 37°49' W 122°19'0 0.0
2017-Dec-12 21:00N 37°49' W 122°19'0 0.0
2017-Dec-12 20:30N 37°49' W 122°19'0 0.0
2017-Dec-12 20:00N 37°49' W 122°19'0 0.0
2017-Dec-12 19:30N 37°49' W 122°19'0 0.0
2017-Dec-12 19:00N 37°49' W 122°19'0 0.0
2017-Dec-12 18:30N 37°49' W 122°19'0 0.0
2017-Dec-12 18:00N 37°49' W 122°19'0 0.0
2017-Dec-12 17:30N 37°49' W 122°19'0 0.0
2017-Dec-12 17:00N 37°49' W 122°19'0 0.0
2017-Dec-12 16:30N 37°49' W 122°19'0 0.0
2017-Dec-12 16:00N 37°49' W 122°19'0 0.0
2017-Dec-12 15:30N 37°49' W 122°19'0 0.0
2017-Dec-12 15:00N 37°49' W 122°19'1 1.4
2017-Dec-12 14:31N 37°49' W 122°19'0 0.5
2017-Dec-12 14:00N 37°49' W 122°20'1 2.3
2017-Dec-12 13:30N 37°48' W 122°21'0 0.7
2017-Dec-12 13:00N 37°48' W 122°21'0 0.0
2017-Dec-12 12:30N 37°48' W 122°21'0 0.0
2017-Dec-12 12:00N 37°48' W 122°21'0 0.9
2017-Dec-12 11:31N 37°49' W 122°20'0 0.7
2017-Dec-12 11:01N 37°49' W 122°20'0 0.3
2017-Dec-12 10:30N 37°49' W 122°20'1 1.5
2017-Dec-12 10:01N 37°48' W 122°20'1 2.8
2017-Dec-12 09:31N 37°48' W 122°18'0 0.6
2017-Dec-12 09:01N 37°48' W 122°18'0 0.0
2017-Dec-12 08:31N 37°48' W 122°18'0 0.0
2017-Dec-12 08:01N 37°48' W 122°18'0 0.0
2017-Dec-12 07:31N 37°48' W 122°18'0 0.0
2017-Dec-12 07:01N 37°48' W 122°18'0 0.0
2017-Dec-12 06:31N 37°48' W 122°18'0 0.0
2017-Dec-12 06:01N 37°48' W 122°18'0 0.7
2017-Dec-12 05:31N 37°48' W 122°19'1 3.0
2017-Dec-12 05:01N 37°49' W 122°19'4 8.5
2017-Dec-12 04:30N 37°51' W 122°23'510.6
2017-Dec-12 04:01N 37°56' W 122°26'5 9.9
2017-Dec-12 03:30N 38°01' W 122°23'510.2
2017-Dec-12 02:59N 38°03' W 122°17'7 0.8
2017-Dec-11 18:27N 38°02' W 122°08'0 0.0
2017-Dec-11 14:27N 38°02' W 122°08'0 1.0
2017-Dec-11 13:57N 38°03' W 122°08'1 2.8
2017-Dec-11 13:30N 38°03' W 122°06'0 0.0
2017-Dec-11 13:01N 38°03' W 122°06'0 0.1
2017-Dec-11 12:30N 38°03' W 122°06'3 6.6
2017-Dec-11 11:59N 38°03' W 122°10'4 8.3
2017-Dec-11 11:30N 38°04' W 122°15'4 8.8
2017-Dec-11 11:01N 38°03' W 122°21'510.2
2017-Dec-11 10:30N 37°59' W 122°26'510.9
2017-Dec-11 10:01N 37°54' W 122°26'5 9.7
2017-Dec-11 09:31N 37°49' W 122°25'4 8.7
2017-Dec-11 09:00N 37°48' W 122°30'1 1.5
2017-Dec-11 08:30N 37°48' W 122°29'0 0.6
2017-Dec-11 08:01N 37°48' W 122°30'1 3.0
2017-Dec-11 07:30N 37°49' W 122°29'5 9.3
2017-Dec-11 07:00N 37°48' W 122°23'3 6.8
2017-Dec-11 06:30N 37°49' W 122°19'0 0.0
2017-Dec-11 06:01N 37°49' W 122°19'0 0.0
2017-Dec-11 05:30N 37°49' W 122°19'0 0.0
2017-Dec-11 05:00N 37°49' W 122°19'0 0.0
2017-Dec-11 04:31N 37°49' W 122°19'0 0.0
2017-Dec-11 04:01N 37°49' W 122°19'1 2.8
2017-Dec-11 03:31N 37°49' W 122°20'1 1.2
2017-Dec-11 03:00N 37°48' W 122°20'2 4.2
2017-Dec-11 02:30N 37°48' W 122°17'1 2.6
2017-Dec-11 02:01N 37°48' W 122°19'1 1.2
2017-Dec-11 01:31N 37°48' W 122°20'2 3.2
2017-Dec-11 01:01N 37°49' W 122°19'0 0.0
2017-Dec-11 00:30N 37°49' W 122°19'0 0.0
2017-Dec-11 00:00N 37°49' W 122°19'0 0.0
2017-Dec-10 23:30N 37°49' W 122°19'0 0.0
2017-Dec-10 23:01N 37°49' W 122°19'0 0.0
2017-Dec-10 22:30N 37°49' W 122°19'0 0.0
2017-Dec-10 22:00N 37°49' W 122°19'0 0.0
2017-Dec-10 21:30N 37°49' W 122°19'0 0.0
2017-Dec-10 21:01N 37°49' W 122°19'0 0.0
2017-Dec-10 20:30N 37°49' W 122°19'0 0.0
2017-Dec-10 20:00N 37°49' W 122°19'0 0.0
2017-Dec-10 19:31N 37°49' W 122°19'0 0.0
2017-Dec-10 19:01N 37°49' W 122°19'0 0.0
2017-Dec-10 18:31N 37°49' W 122°19'1 2.1
2017-Dec-10 18:00N 37°49' W 122°20'4 9.0
2017-Dec-10 17:31N 37°52' W 122°24'3 5.7
2017-Dec-10 17:00N 37°55' W 122°24'2 4.0
2017-Dec-10 16:31N 37°55' W 122°22'0 0.8
2017-Dec-10 16:01N 37°55' W 122°22'0 0.9
2017-Dec-10 15:30N 37°55' W 122°22'0 0.0
2017-Dec-10 14:58N 37°55' W 122°22'0 0.0
2017-Dec-10 14:30N 37°55' W 122°22'0 0.0
2017-Dec-10 14:01N 37°55' W 122°22'0 0.0
2017-Dec-10 13:30N 37°55' W 122°22'0 0.8
2017-Dec-10 13:00N 37°55' W 122°22'0 0.3
2017-Dec-10 12:30N 37°55' W 122°22'3 5.8
2017-Dec-10 12:01N 37°53' W 122°24'5 9.5
2017-Dec-10 11:31N 37°49' W 122°21'1 2.0
2017-Dec-10 11:01N 37°49' W 122°20'0 0.0
2017-Dec-10 10:30N 37°49' W 122°20'0 0.0
2017-Dec-10 10:01N 37°49' W 122°20'0 0.0
2017-Dec-10 09:30N 37°49' W 122°20'0 0.0
2017-Dec-10 09:00N 37°49' W 122°20'1 1.3
2017-Dec-10 08:31N 37°48' W 122°20'1 1.9
2017-Dec-10 08:01N 37°48' W 122°19'0 0.2
2017-Dec-10 07:31N 37°48' W 122°19'1 2.1
2017-Dec-10 07:01N 37°48' W 122°17'2 3.8
2017-Dec-10 06:30N 37°48' W 122°20'1 1.5
2017-Dec-10 06:00N 37°48' W 122°21'0 0.0
2017-Dec-10 05:31N 37°48' W 122°21'0 0.0
2017-Dec-10 05:00N 37°48' W 122°21'0 0.0
2017-Dec-10 04:31N 37°48' W 122°21'0 0.0
2017-Dec-10 04:00N 37°48' W 122°21'0 0.0
2017-Dec-10 03:31N 37°48' W 122°21'0 0.0
2017-Dec-10 03:01N 37°48' W 122°21'0 0.0
2017-Dec-10 02:31N 37°48' W 122°21'2 3.3
2017-Dec-10 02:00N 37°48' W 122°19'1 1.1
2017-Dec-10 01:30N 37°48' W 122°18'1 2.3
2017-Dec-10 01:01N 37°48' W 122°19'0 0.1
2017-Dec-10 00:31N 37°48' W 122°19'0 0.0
2017-Dec-10 00:00N 37°48' W 122°19'0 0.7
2017-Dec-09 23:31N 37°48' W 122°20'1 1.5
2017-Dec-09 23:01N 37°49' W 122°20'0 0.5
2017-Dec-09 22:31N 37°49' W 122°20'1 1.6
2017-Dec-09 22:00N 37°49' W 122°19'0 0.0
2017-Dec-09 21:31N 37°49' W 122°19'0 0.0
2017-Dec-09 21:00N 37°49' W 122°19'0 0.0
2017-Dec-09 20:30N 37°49' W 122°19'0 0.0
2017-Dec-09 20:01N 37°49' W 122°19'0 0.0
2017-Dec-09 19:30N 37°49' W 122°19'0 0.0
2017-Dec-09 19:00N 37°49' W 122°19'0 0.0
2017-Dec-09 18:30N 37°49' W 122°19'0 0.0
2017-Dec-09 18:01N 37°49' W 122°19'0 0.0
2017-Dec-09 17:30N 37°49' W 122°19'0 0.0
2017-Dec-09 17:01N 37°49' W 122°19'0 0.0
2017-Dec-09 16:30N 37°49' W 122°19'0 0.0
2017-Dec-09 16:01N 37°49' W 122°19'0 0.0
2017-Dec-09 15:30N 37°49' W 122°19'0 0.0
2017-Dec-09 15:01N 37°49' W 122°19'1 1.6
2017-Dec-09 14:30N 37°49' W 122°20'2 3.1
2017-Dec-09 14:00N 37°48' W 122°18'1 1.3
2017-Dec-09 13:31N 37°48' W 122°18'1 2.5
2017-Dec-09 13:01N 37°48' W 122°19'0 0.1
2017-Dec-09 12:30N 37°48' W 122°19'0 0.0
2017-Dec-09 12:01N 37°48' W 122°19'0 0.0
2017-Dec-09 11:30N 37°48' W 122°19'0 0.0
2017-Dec-09 11:00N 37°48' W 122°19'0 0.0
2017-Dec-09 10:30N 37°48' W 122°19'0 0.0
2017-Dec-09 10:01N 37°48' W 122°19'0 0.9
2017-Dec-09 09:31N 37°48' W 122°20'1 1.6
2017-Dec-09 09:00N 37°48' W 122°19'1 2.0
2017-Dec-09 08:31N 37°48' W 122°20'2 3.3
2017-Dec-09 08:00N 37°49' W 122°19'0 0.0
2017-Dec-09 07:30N 37°49' W 122°19'0 0.0
2017-Dec-09 07:00N 37°49' W 122°19'0 0.0
2017-Dec-09 06:31N 37°49' W 122°19'0 0.0
2017-Dec-09 06:01N 37°49' W 122°19'0 0.0
2017-Dec-09 05:31N 37°49' W 122°19'0 0.0
2017-Dec-09 05:01N 37°49' W 122°19'1 2.7
2017-Dec-09 04:30N 37°49' W 122°20'5 9.3
2017-Dec-09 04:01N 37°52' W 122°24'612.7
2017-Dec-09 03:31N 37°58' W 122°26'612.0
2017-Dec-09 03:00N 38°02' W 122°20'510.9
2017-Dec-09 02:30N 38°04' W 122°13'4 4.1
2017-Dec-09 01:29N 38°02' W 122°08'0 0.1
2017-Dec-09 01:00N 38°02' W 122°08'0 0.6
2017-Dec-09 00:09N 38°02' W 122°08'1 3.8
2017-Dec-09 00:01N 38°02' W 122°08'4 7.9
2017-Dec-08 23:28N 38°04' W 122°13'510.2
2017-Dec-08 23:00N 38°03' W 122°19'510.3
2017-Dec-08 22:30N 38°00' W 122°25'612.4
2017-Dec-08 22:00N 37°54' W 122°27'4 7.6
2017-Dec-08 21:31N 37°51' W 122°27'4 7.4
2017-Dec-08 21:00N 37°48' W 122°30'0 0.3
2017-Dec-08 20:30N 37°48' W 122°30'3 5.5
2017-Dec-08 20:00N 37°49' W 122°27'5 9.7
2017-Dec-08 19:30N 37°48' W 122°21'2 3.6
2017-Dec-08 19:00N 37°49' W 122°19'0 0.0
2017-Dec-08 18:30N 37°49' W 122°19'0 0.0
2017-Dec-08 18:00N 37°49' W 122°19'0 0.0
2017-Dec-08 17:30N 37°49' W 122°19'0 0.0
2017-Dec-08 17:00N 37°49' W 122°19'0 0.0
2017-Dec-08 16:30N 37°49' W 122°19'0 0.0
2017-Dec-08 16:00N 37°49' W 122°19'0 0.0
2017-Dec-08 15:31N 37°49' W 122°19'0 0.5
2017-Dec-08 15:00N 37°49' W 122°19'1 1.6
2017-Dec-08 14:31N 37°49' W 122°20'1 1.1
2017-Dec-08 14:00N 37°49' W 122°20'1 1.3
2017-Dec-08 13:31N 37°48' W 122°21'0 0.9
2017-Dec-08 13:00N 37°48' W 122°21'0 0.0
2017-Dec-08 12:30N 37°48' W 122°21'3 5.1
2017-Dec-08 12:00N 37°48' W 122°17'1 1.1
2017-Dec-08 11:30N 37°48' W 122°18'0 0.9
2017-Dec-08 11:00N 37°48' W 122°19'2 3.2
2017-Dec-08 10:31N 37°48' W 122°21'2 3.5
2017-Dec-08 10:00N 37°49' W 122°19'0 0.0
2017-Dec-08 09:30N 37°49' W 122°19'0 0.0
2017-Dec-08 09:01N 37°49' W 122°19'0 0.0
2017-Dec-08 08:30N 37°49' W 122°19'0 0.0
2017-Dec-08 08:01N 37°49' W 122°19'1 2.5
2017-Dec-08 07:30N 37°49' W 122°20'1 2.1
2017-Dec-08 07:01N 37°48' W 122°19'0 0.4
2017-Dec-08 06:31N 37°48' W 122°20'2 3.2
2017-Dec-08 06:01N 37°48' W 122°22'2 4.9
2017-Dec-08 05:30N 37°49' W 122°19'0 0.3
2017-Dec-08 05:00N 37°49' W 122°19'0 0.0
2017-Dec-08 04:30N 37°49' W 122°19'0 0.0
2017-Dec-08 04:00N 37°49' W 122°19'0 0.0
2017-Dec-08 03:30N 37°49' W 122°19'0 0.0
2017-Dec-08 03:00N 37°49' W 122°19'0 0.0
2017-Dec-08 02:30N 37°49' W 122°19'0 0.0
2017-Dec-08 02:00N 37°49' W 122°19'0 0.0
2017-Dec-08 01:30N 37°49' W 122°19'0 0.0
2017-Dec-08 01:00N 37°49' W 122°19'0 0.0
2017-Dec-08 00:30N 37°49' W 122°19'1 1.9
2017-Dec-08 00:00N 37°49' W 122°20'0 0.3
2017-Dec-07 23:31N 37°49' W 122°20'510.1
2017-Dec-07 23:00N 37°53' W 122°24'510.7
2017-Dec-07 22:30N 37°58' W 122°26'6 9.9
2017-Dec-07 21:54N 38°02' W 122°21'410.2
2017-Dec-07 21:29N 38°04' W 122°16'6 3.1
2017-Dec-07 19:36N 38°02' W 122°08'0 0.0
2017-Dec-07 19:28N 38°02' W 122°08'0 0.0
2017-Dec-07 18:58N 38°02' W 122°08'0 0.0
2017-Dec-07 18:30N 38°02' W 122°08'0 0.0
2017-Dec-07 18:00N 38°02' W 122°08'0 0.0
2017-Dec-07 17:30N 38°02' W 122°08'0 0.0
2017-Dec-07 17:00N 38°02' W 122°08'0 0.0
2017-Dec-07 16:30N 38°02' W 122°08'0 0.0
2017-Dec-07 16:00N 38°02' W 122°08'0 0.0
2017-Dec-07 15:30N 38°02' W 122°08'0 0.0
2017-Dec-07 15:00N 38°02' W 122°08'0 0.0
2017-Dec-07 14:30N 38°02' W 122°08'0 0.0
2017-Dec-07 14:00N 38°02' W 122°08'0 0.0
2017-Dec-07 13:30N 38°02' W 122°08'0 0.0
2017-Dec-07 13:00N 38°02' W 122°08'0 0.0
2017-Dec-07 12:30N 38°02' W 122°08'0 0.0
2017-Dec-07 12:00N 38°02' W 122°08'0 0.0
2017-Dec-07 11:30N 38°02' W 122°08'0 0.0
2017-Dec-07 11:00N 38°02' W 122°08'0 0.0
2017-Dec-07 10:30N 38°02' W 122°08'0 0.0
2017-Dec-07 10:00N 38°02' W 122°08'0 0.0
2017-Dec-07 09:30N 38°02' W 122°08'0 0.0
2017-Dec-07 09:00N 38°02' W 122°08'0 0.0
2017-Dec-07 08:30N 38°02' W 122°08'0 0.0
2017-Dec-07 07:49N 38°02' W 122°08'0 0.0
2017-Dec-07 07:30N 38°02' W 122°08'0 0.0
2017-Dec-07 07:00N 38°02' W 122°08'0 0.0
2017-Dec-07 06:30N 38°02' W 122°08'0 0.0
2017-Dec-07 05:54N 38°02' W 122°08'  
Track history (hours):
 
Tides and Currents Weather Stations Pressure Air Temp Water Temp Dewpoint Dewpoint Depression Visibility Wind Speed Wind Dir Waves Ship Positions

Sandra Hugh

Owner: AMNAV Maritime Corporation, Oakland, CA. More information available from US FCC via Universal Licensing System and Coast Guard Vessel Documentation Center.

Last reported at 2017-Dec-15 07:54 UTC. Time now 2017-Dec-15 08:08 UTC.
Position N 38°03' W 122°15'.

Length 24 m; draft 4.9 m.

Type: Tug. MMSI: 367305920.

Date/timePositionNaut miles runAvg speedWind from/ knotsBaromVisibWave heightAir tempDewpointWater temp
2017-Dec-15 07:54N 38°03' W 122°15'0 0.0
2017-Dec-15 07:01N 38°03' W 122°15'0 0.0
2017-Dec-15 06:58N 38°03' W 122°15'0 0.0
2017-Dec-15 06:25N 38°03' W 122°15'1 0.2
2017-Dec-15 02:06N 38°04' W 122°13'9 8.5
2017-Dec-15 00:59N 37°60' W 122°25'4 8.7
2017-Dec-15 00:29N 37°56' W 122°25'8 1.4
2017-Dec-14 18:31N 37°49' W 122°19'0 0.0
2017-Dec-14 18:00N 37°49' W 122°19'0 0.0
2017-Dec-14 17:30N 37°49' W 122°19'0 0.0
2017-Dec-14 17:00N 37°49' W 122°19'0 0.0
2017-Dec-14 16:30N 37°49' W 122°19'0 0.0
2017-Dec-14 16:00N 37°49' W 122°19'2 2.0
2017-Dec-14 15:00N 37°48' W 122°18'0 0.8
2017-Dec-14 14:30N 37°48' W 122°18'1 1.0
2017-Dec-14 14:00N 37°48' W 122°19'0 0.8
2017-Dec-14 13:30N 37°48' W 122°19'2 3.2
2017-Dec-14 13:00N 37°49' W 122°19'0 0.0
2017-Dec-14 12:30N 37°49' W 122°19'0 0.0
2017-Dec-14 12:00N 37°49' W 122°19'0 0.0
2017-Dec-14 11:30N 37°49' W 122°19'0 0.0
2017-Dec-14 11:00N 37°49' W 122°19'0 0.0
2017-Dec-14 10:30N 37°49' W 122°19'0 0.0
2017-Dec-14 10:00N 37°49' W 122°19'0 0.0
2017-Dec-14 09:30N 37°49' W 122°19'0 0.0
2017-Dec-14 09:00N 37°49' W 122°19'0 0.0
2017-Dec-14 08:30N 37°49' W 122°19'0 0.0
2017-Dec-14 08:00N 37°49' W 122°19'0 0.0
2017-Dec-14 07:30N 37°49' W 122°19'0 0.0
2017-Dec-14 07:00N 37°49' W 122°19'0 0.0
2017-Dec-14 06:30N 37°49' W 122°19'0 0.0
2017-Dec-14 06:00N 37°49' W 122°19'0 0.0
2017-Dec-14 05:30N 37°49' W 122°19'0 0.0
2017-Dec-14 05:00N 37°49' W 122°19'0 0.0
2017-Dec-14 04:30N 37°49' W 122°19'0 0.0
2017-Dec-14 04:00N 37°49' W 122°19'0 0.0
2017-Dec-14 03:30N 37°49' W 122°19'2 3.2
2017-Dec-14 03:00N 37°48' W 122°19'0 0.1
2017-Dec-14 02:30N 37°48' W 122°19'0 0.0
2017-Dec-14 02:00N 37°48' W 122°19'0 0.0
2017-Dec-14 01:30N 37°48' W 122°19'1 2.4
2017-Dec-14 01:00N 37°49' W 122°20'0 0.8
2017-Dec-14 00:31N 37°49' W 122°20'0 0.1
2017-Dec-14 00:00N 37°49' W 122°20'2 4.6
2017-Dec-13 23:30N 37°49' W 122°23'2 3.5
2017-Dec-13 23:00N 37°48' W 122°21'0 0.0
2017-Dec-13 22:30N 37°48' W 122°21'2 3.0
2017-Dec-13 22:00N 37°50' W 122°22'510.1
2017-Dec-13 21:30N 37°54' W 122°25'611.7
2017-Dec-13 21:00N 37°60' W 122°25'611.5
2017-Dec-13 20:30N 38°03' W 122°19'9 7.2
2017-Dec-13 19:16N 38°02' W 122°07'1 0.6
2017-Dec-13 17:49N 38°02' W 122°08'3 6.0
2017-Dec-13 17:20N 38°03' W 122°11'310.1
2017-Dec-13 17:00N 38°04' W 122°16'5 8.2
2017-Dec-13 16:24N 38°02' W 122°22'3 8.4
2017-Dec-13 16:00N 38°00' W 122°25'610.6
2017-Dec-13 15:27N 37°54' W 122°27'4 8.9
2017-Dec-13 15:00N 37°51' W 122°25'5 9.8
2017-Dec-13 14:30N 37°48' W 122°31'1 1.2
2017-Dec-13 14:00N 37°48' W 122°30'1 2.4
2017-Dec-13 13:30N 37°49' W 122°29'4 8.1
2017-Dec-13 13:00N 37°49' W 122°24'4 8.2
2017-Dec-13 12:30N 37°49' W 122°19'0 0.0
2017-Dec-13 12:00N 37°49' W 122°19'0 0.0
2017-Dec-13 11:30N 37°49' W 122°19'0 0.0
2017-Dec-13 11:00N 37°49' W 122°19'0 0.0
2017-Dec-13 10:30N 37°49' W 122°19'0 0.0
2017-Dec-13 10:00N 37°49' W 122°19'0 0.0
2017-Dec-13 09:30N 37°49' W 122°19'0 0.0
2017-Dec-13 09:00N 37°49' W 122°19'0 0.0
2017-Dec-13 08:30N 37°49' W 122°19'0 0.0
2017-Dec-13 08:01N 37°49' W 122°19'0 0.0
2017-Dec-13 07:30N 37°49' W 122°19'0 0.0
2017-Dec-13 07:00N 37°49' W 122°19'0 0.0
2017-Dec-13 06:30N 37°49' W 122°19'0 0.0
2017-Dec-13 06:00N 37°49' W 122°19'0 0.0
2017-Dec-13 05:30N 37°49' W 122°19'0 0.0
2017-Dec-13 05:00N 37°49' W 122°19'0 0.0
2017-Dec-13 04:30N 37°49' W 122°19'0 0.0
2017-Dec-13 04:01N 37°49' W 122°19'2 3.2
2017-Dec-13 03:31N 37°48' W 122°19'1 2.3
2017-Dec-13 03:01N 37°48' W 122°20'3 5.1
2017-Dec-13 02:31N 37°46' W 122°22'3 6.1
2017-Dec-13 02:00N 37°49' W 122°20'0 0.5
2017-Dec-13 01:30N 37°49' W 122°20'0 1.0
2017-Dec-13 01:00N 37°49' W 122°20'2 3.8
2017-Dec-13 00:31N 37°48' W 122°23'3 6.8
2017-Dec-13 00:00N 37°49' W 122°19'0 0.0
2017-Dec-12 23:30N 37°49' W 122°19'0 0.0
2017-Dec-12 23:00N 37°49' W 122°19'0 0.0
2017-Dec-12 22:30N 37°49' W 122°19'0 0.0
2017-Dec-12 22:00N 37°49' W 122°19'0 0.0
2017-Dec-12 21:30N 37°49' W 122°19'0 0.0
2017-Dec-12 21:00N 37°49' W 122°19'0 0.0
2017-Dec-12 20:30N 37°49' W 122°19'0 0.0
2017-Dec-12 20:00N 37°49' W 122°19'0 0.0
2017-Dec-12 19:30N 37°49' W 122°19'0 0.0
2017-Dec-12 19:00N 37°49' W 122°19'0 0.0
2017-Dec-12 18:30N 37°49' W 122°19'0 0.0
2017-Dec-12 18:00N 37°49' W 122°19'0 0.0
2017-Dec-12 17:30N 37°49' W 122°19'0 0.0
2017-Dec-12 17:00N 37°49' W 122°19'0 0.0
2017-Dec-12 16:30N 37°49' W 122°19'0 0.0
2017-Dec-12 16:00N 37°49' W 122°19'0 0.0
2017-Dec-12 15:30N 37°49' W 122°19'0 0.0
2017-Dec-12 15:00N 37°49' W 122°19'1 1.4
2017-Dec-12 14:31N 37°49' W 122°19'0 0.5
2017-Dec-12 14:00N 37°49' W 122°20'1 2.3
2017-Dec-12 13:30N 37°48' W 122°21'0 0.7
2017-Dec-12 13:00N 37°48' W 122°21'0 0.0
2017-Dec-12 12:30N 37°48' W 122°21'0 0.0
2017-Dec-12 12:00N 37°48' W 122°21'0 0.9
2017-Dec-12 11:31N 37°49' W 122°20'0 0.7
2017-Dec-12 11:01N 37°49' W 122°20'0 0.3
2017-Dec-12 10:30N 37°49' W 122°20'1 1.5
2017-Dec-12 10:01N 37°48' W 122°20'1 2.8
2017-Dec-12 09:31N 37°48' W 122°18'0 0.6
2017-Dec-12 09:01N 37°48' W 122°18'0 0.0
2017-Dec-12 08:31N 37°48' W 122°18'0 0.0
2017-Dec-12 08:01N 37°48' W 122°18'0 0.0
2017-Dec-12 07:31N 37°48' W 122°18'0 0.0
2017-Dec-12 07:01N 37°48' W 122°18'0 0.0
2017-Dec-12 06:31N 37°48' W 122°18'0 0.0
2017-Dec-12 06:01N 37°48' W 122°18'0 0.7
2017-Dec-12 05:31N 37°48' W 122°19'1 3.0
2017-Dec-12 05:01N 37°49' W 122°19'4 8.5
2017-Dec-12 04:30N 37°51' W 122°23'510.6
2017-Dec-12 04:01N 37°56' W 122°26'5 9.9
2017-Dec-12 03:30N 38°01' W 122°23'510.2
2017-Dec-12 02:59N 38°03' W 122°17'7 0.8
2017-Dec-11 18:27N 38°02' W 122°08'0 0.0
2017-Dec-11 14:27N 38°02' W 122°08'0 1.0
2017-Dec-11 13:57N 38°03' W 122°08'1 2.8
2017-Dec-11 13:30N 38°03' W 122°06'0 0.0
2017-Dec-11 13:01N 38°03' W 122°06'0 0.1
2017-Dec-11 12:30N 38°03' W 122°06'3 6.6
2017-Dec-11 11:59N 38°03' W 122°10'4 8.3
2017-Dec-11 11:30N 38°04' W 122°15'4 8.8
2017-Dec-11 11:01N 38°03' W 122°21'510.2
2017-Dec-11 10:30N 37°59' W 122°26'510.9
2017-Dec-11 10:01N 37°54' W 122°26'5 9.7
2017-Dec-11 09:31N 37°49' W 122°25'4 8.7
2017-Dec-11 09:00N 37°48' W 122°30'1 1.5
2017-Dec-11 08:30N 37°48' W 122°29'0 0.6
2017-Dec-11 08:01N 37°48' W 122°30'1 3.0
2017-Dec-11 07:30N 37°49' W 122°29'5 9.3
2017-Dec-11 07:00N 37°48' W 122°23'3 6.8
2017-Dec-11 06:30N 37°49' W 122°19'0 0.0
2017-Dec-11 06:01N 37°49' W 122°19'0 0.0
2017-Dec-11 05:30N 37°49' W 122°19'0 0.0
2017-Dec-11 05:00N 37°49' W 122°19'0 0.0
2017-Dec-11 04:31N 37°49' W 122°19'0 0.0
2017-Dec-11 04:01N 37°49' W 122°19'1 2.8
2017-Dec-11 03:31N 37°49' W 122°20'1 1.2
2017-Dec-11 03:00N 37°48' W 122°20'2 4.2
2017-Dec-11 02:30N 37°48' W 122°17'1 2.6
2017-Dec-11 02:01N 37°48' W 122°19'1 1.2
2017-Dec-11 01:31N 37°48' W 122°20'2 3.2
2017-Dec-11 01:01N 37°49' W 122°19'0 0.0
2017-Dec-11 00:30N 37°49' W 122°19'0 0.0
2017-Dec-11 00:00N 37°49' W 122°19'0 0.0
2017-Dec-10 23:30N 37°49' W 122°19'0 0.0
2017-Dec-10 23:01N 37°49' W 122°19'0 0.0
2017-Dec-10 22:30N 37°49' W 122°19'0 0.0
2017-Dec-10 22:00N 37°49' W 122°19'0 0.0
2017-Dec-10 21:30N 37°49' W 122°19'0 0.0
2017-Dec-10 21:01N 37°49' W 122°19'0 0.0
2017-Dec-10 20:30N 37°49' W 122°19'0 0.0
2017-Dec-10 20:00N 37°49' W 122°19'0 0.0
2017-Dec-10 19:31N 37°49' W 122°19'0 0.0
2017-Dec-10 19:01N 37°49' W 122°19'0 0.0
2017-Dec-10 18:31N 37°49' W 122°19'1 2.1
2017-Dec-10 18:00N 37°49' W 122°20'4 9.0
2017-Dec-10 17:31N 37°52' W 122°24'3 5.7
2017-Dec-10 17:00N 37°55' W 122°24'2 4.0
2017-Dec-10 16:31N 37°55' W 122°22'0 0.8
2017-Dec-10 16:01N 37°55' W 122°22'0 0.9
2017-Dec-10 15:30N 37°55' W 122°22'0 0.0
2017-Dec-10 14:58N 37°55' W 122°22'0 0.0
2017-Dec-10 14:30N 37°55' W 122°22'0 0.0
2017-Dec-10 14:01N 37°55' W 122°22'0 0.0
2017-Dec-10 13:30N 37°55' W 122°22'0 0.8
2017-Dec-10 13:00N 37°55' W 122°22'0 0.3
2017-Dec-10 12:30N 37°55' W 122°22'3 5.8
2017-Dec-10 12:01N 37°53' W 122°24'5 9.5
2017-Dec-10 11:31N 37°49' W 122°21'1 2.0
2017-Dec-10 11:01N 37°49' W 122°20'0 0.0
2017-Dec-10 10:30N 37°49' W 122°20'0 0.0
2017-Dec-10 10:01N 37°49' W 122°20'0 0.0
2017-Dec-10 09:30N 37°49' W 122°20'0 0.0
2017-Dec-10 09:00N 37°49' W 122°20'1 1.3
2017-Dec-10 08:31N 37°48' W 122°20'1 1.9
2017-Dec-10 08:01N 37°48' W 122°19'0 0.2
2017-Dec-10 07:31N 37°48' W 122°19'1 2.1
2017-Dec-10 07:01N 37°48' W 122°17'2 3.8
2017-Dec-10 06:30N 37°48' W 122°20'1 1.5
2017-Dec-10 06:00N 37°48' W 122°21'0 0.0
2017-Dec-10 05:31N 37°48' W 122°21'0 0.0
2017-Dec-10 05:00N 37°48' W 122°21'0 0.0
2017-Dec-10 04:31N 37°48' W 122°21'0 0.0
2017-Dec-10 04:00N 37°48' W 122°21'0 0.0
2017-Dec-10 03:31N 37°48' W 122°21'0 0.0
2017-Dec-10 03:01N 37°48' W 122°21'0 0.0
2017-Dec-10 02:31N 37°48' W 122°21'2 3.3
2017-Dec-10 02:00N 37°48' W 122°19'1 1.1
2017-Dec-10 01:30N 37°48' W 122°18'1 2.3
2017-Dec-10 01:01N 37°48' W 122°19'0 0.1
2017-Dec-10 00:31N 37°48' W 122°19'0 0.0
2017-Dec-10 00:00N 37°48' W 122°19'0 0.7
2017-Dec-09 23:31N 37°48' W 122°20'1 1.5
2017-Dec-09 23:01N 37°49' W 122°20'0 0.5
2017-Dec-09 22:31N 37°49' W 122°20'1 1.6
2017-Dec-09 22:00N 37°49' W 122°19'0 0.0
2017-Dec-09 21:31N 37°49' W 122°19'0 0.0
2017-Dec-09 21:00N 37°49' W 122°19'0 0.0
2017-Dec-09 20:30N 37°49' W 122°19'0 0.0
2017-Dec-09 20:01N 37°49' W 122°19'0 0.0
2017-Dec-09 19:30N 37°49' W 122°19'0 0.0
2017-Dec-09 19:00N 37°49' W 122°19'0 0.0
2017-Dec-09 18:30N 37°49' W 122°19'0 0.0
2017-Dec-09 18:01N 37°49' W 122°19'0 0.0
2017-Dec-09 17:30N 37°49' W 122°19'0 0.0
2017-Dec-09 17:01N 37°49' W 122°19'0 0.0
2017-Dec-09 16:30N 37°49' W 122°19'0 0.0
2017-Dec-09 16:01N 37°49' W 122°19'0 0.0
2017-Dec-09 15:30N 37°49' W 122°19'0 0.0
2017-Dec-09 15:01N 37°49' W 122°19'1 1.6
2017-Dec-09 14:30N 37°49' W 122°20'2 3.1
2017-Dec-09 14:00N 37°48' W 122°18'1 1.3
2017-Dec-09 13:31N 37°48' W 122°18'1 2.5
2017-Dec-09 13:01N 37°48' W 122°19'0 0.1
2017-Dec-09 12:30N 37°48' W 122°19'0 0.0
2017-Dec-09 12:01N 37°48' W 122°19'0 0.0
2017-Dec-09 11:30N 37°48' W 122°19'0 0.0
2017-Dec-09 11:00N 37°48' W 122°19'0 0.0
2017-Dec-09 10:30N 37°48' W 122°19'0 0.0
2017-Dec-09 10:01N 37°48' W 122°19'0 0.9
2017-Dec-09 09:31N 37°48' W 122°20'1 1.6
2017-Dec-09 09:00N 37°48' W 122°19'1 2.0
2017-Dec-09 08:31N 37°48' W 122°20'2 3.3
2017-Dec-09 08:00N 37°49' W 122°19'0 0.0
2017-Dec-09 07:30N 37°49' W 122°19'0 0.0
2017-Dec-09 07:00N 37°49' W 122°19'0 0.0
2017-Dec-09 06:31N 37°49' W 122°19'0 0.0
2017-Dec-09 06:01N 37°49' W 122°19'0 0.0
2017-Dec-09 05:31N 37°49' W 122°19'0 0.0
2017-Dec-09 05:01N 37°49' W 122°19'1 2.7
2017-Dec-09 04:30N 37°49' W 122°20'5 9.3
2017-Dec-09 04:01N 37°52' W 122°24'612.7
2017-Dec-09 03:31N 37°58' W 122°26'612.0
2017-Dec-09 03:00N 38°02' W 122°20'510.9
2017-Dec-09 02:30N 38°04' W 122°13'4 4.1
2017-Dec-09 01:29N 38°02' W 122°08'0 0.1
2017-Dec-09 01:00N 38°02' W 122°08'0 0.6
2017-Dec-09 00:09N 38°02' W 122°08'1 3.8
2017-Dec-09 00:01N 38°02' W 122°08'4 7.9
2017-Dec-08 23:28N 38°04' W 122°13'510.2
2017-Dec-08 23:00N 38°03' W 122°19'510.3
2017-Dec-08 22:30N 38°00' W 122°25'612.4
2017-Dec-08 22:00N 37°54' W 122°27'4 7.6
2017-Dec-08 21:31N 37°51' W 122°27'4 7.4
2017-Dec-08 21:00N 37°48' W 122°30'0 0.3
2017-Dec-08 20:30N 37°48' W 122°30'3 5.5
2017-Dec-08 20:00N 37°49' W 122°27'5 9.7
2017-Dec-08 19:30N 37°48' W 122°21'2 3.6
2017-Dec-08 19:00N 37°49' W 122°19'0 0.0
2017-Dec-08 18:30N 37°49' W 122°19'0 0.0
2017-Dec-08 18:00N 37°49' W 122°19'0 0.0
2017-Dec-08 17:30N 37°49' W 122°19'0 0.0
2017-Dec-08 17:00N 37°49' W 122°19'0 0.0
2017-Dec-08 16:30N 37°49' W 122°19'0 0.0
2017-Dec-08 16:00N 37°49' W 122°19'0 0.0
2017-Dec-08 15:31N 37°49' W 122°19'0 0.5
2017-Dec-08 15:00N 37°49' W 122°19'1 1.6
2017-Dec-08 14:31N 37°49' W 122°20'1 1.1
2017-Dec-08 14:00N 37°49' W 122°20'1 1.3
2017-Dec-08 13:31N 37°48' W 122°21'0 0.9
2017-Dec-08 13:00N 37°48' W 122°21'0 0.0
2017-Dec-08 12:30N 37°48' W 122°21'3 5.1
2017-Dec-08 12:00N 37°48' W 122°17'1 1.1
2017-Dec-08 11:30N 37°48' W 122°18'0 0.9
2017-Dec-08 11:00N 37°48' W 122°19'2 3.2
2017-Dec-08 10:31N 37°48' W 122°21'2 3.5
2017-Dec-08 10:00N 37°49' W 122°19'0 0.0
2017-Dec-08 09:30N 37°49' W 122°19'0 0.0
2017-Dec-08 09:01N 37°49' W 122°19'0 0.0
2017-Dec-08 08:30N 37°49' W 122°19'0 0.0
2017-Dec-08 08:01N 37°49' W 122°19'1 2.5
2017-Dec-08 07:30N 37°49' W 122°20'1 2.1
2017-Dec-08 07:01N 37°48' W 122°19'0 0.4
2017-Dec-08 06:31N 37°48' W 122°20'2 3.2
2017-Dec-08 06:01N 37°48' W 122°22'2 4.9
2017-Dec-08 05:30N 37°49' W 122°19'0 0.3
2017-Dec-08 05:00N 37°49' W 122°19'0 0.0
2017-Dec-08 04:30N 37°49' W 122°19'0 0.0
2017-Dec-08 04:00N 37°49' W 122°19'0 0.0
2017-Dec-08 03:30N 37°49' W 122°19'0 0.0
2017-Dec-08 03:00N 37°49' W 122°19'0 0.0
2017-Dec-08 02:30N 37°49' W 122°19'0 0.0
2017-Dec-08 02:00N 37°49' W 122°19'0 0.0
2017-Dec-08 01:30N 37°49' W 122°19'0 0.0
2017-Dec-08 01:00N 37°49' W 122°19'0 0.0
2017-Dec-08 00:30N 37°49' W 122°19'1 1.9
2017-Dec-08 00:00N 37°49' W 122°20'0 0.3
2017-Dec-07 23:31N 37°49' W 122°20'510.1
2017-Dec-07 23:00N 37°53' W 122°24'510.7
2017-Dec-07 22:30N 37°58' W 122°26'6 9.9
2017-Dec-07 21:54N 38°02' W 122°21'410.2
2017-Dec-07 21:29N 38°04' W 122°16'6 3.1
2017-Dec-07 19:36N 38°02' W 122°08'0 0.0
2017-Dec-07 19:28N 38°02' W 122°08'0 0.0
2017-Dec-07 18:58N 38°02' W 122°08'0 0.0
2017-Dec-07 18:30N 38°02' W 122°08'0 0.0
2017-Dec-07 18:00N 38°02' W 122°08'0 0.0
2017-Dec-07 17:30N 38°02' W 122°08'0 0.0
2017-Dec-07 17:00N 38°02' W 122°08'0 0.0
2017-Dec-07 16:30N 38°02' W 122°08'0 0.0
2017-Dec-07 16:00N 38°02' W 122°08'0 0.0
2017-Dec-07 15:30N 38°02' W 122°08'0 0.0
2017-Dec-07 15:00N 38°02' W 122°08'0 0.0
2017-Dec-07 14:30N 38°02' W 122°08'0 0.0
2017-Dec-07 14:00N 38°02' W 122°08'0 0.0
2017-Dec-07 13:30N 38°02' W 122°08'0 0.0
2017-Dec-07 13:00N 38°02' W 122°08'0 0.0
2017-Dec-07 12:30N 38°02' W 122°08'0 0.0
2017-Dec-07 12:00N 38°02' W 122°08'0 0.0
2017-Dec-07 11:30N 38°02' W 122°08'0 0.0
2017-Dec-07 11:00N 38°02' W 122°08'0 0.0
2017-Dec-07 10:30N 38°02' W 122°08'0 0.0
2017-Dec-07 10:00N 38°02' W 122°08'0 0.0
2017-Dec-07 09:30N 38°02' W 122°08'0 0.0
2017-Dec-07 09:00N 38°02' W 122°08'0 0.0
2017-Dec-07 08:30N 38°02' W 122°08'0 0.0
2017-Dec-07 07:49N 38°02' W 122°08'0 0.0
2017-Dec-07 07:30N 38°02' W 122°08'0 0.0
2017-Dec-07 07:00N 38°02' W 122°08'0 0.0
2017-Dec-07 06:30N 38°02' W 122°08'0 0.0
2017-Dec-07 05:54N 38°02' W 122°08'  

Dump ship's entire track history